createdAt,value
2019-04-04T00:01:43.991Z,0.40
2019-04-04T00:04:13.671Z,0.40
2019-04-04T00:06:43.417Z,0.50
2019-04-04T00:09:16.036Z,0.60
2019-04-04T00:11:45.809Z,0.60
2019-04-04T00:14:15.734Z,0.50
2019-04-04T00:16:46.777Z,0.43
2019-04-04T00:19:16.999Z,0.30
2019-04-04T00:21:46.763Z,0.40
2019-04-04T00:24:16.520Z,0.50
2019-04-04T00:26:46.284Z,0.37
2019-04-04T00:29:17.169Z,0.50
2019-04-04T00:31:49.476Z,0.30
2019-04-04T00:34:18.928Z,0.30
2019-04-04T00:36:49.015Z,0.40
2019-04-04T00:39:18.774Z,0.30
2019-04-04T00:41:48.541Z,0.30
2019-04-04T00:44:18.212Z,0.20
2019-04-04T00:46:47.990Z,0.30
2019-04-04T00:49:17.809Z,0.30
2019-04-04T00:51:47.520Z,0.30
2019-04-04T00:54:17.225Z,0.20
2019-04-04T00:56:48.778Z,0.30
2019-04-04T00:59:18.558Z,0.30
2019-04-04T01:01:48.270Z,0.30
2019-04-04T01:04:18.013Z,0.20
2019-04-04T01:06:47.765Z,0.30
2019-04-04T01:09:17.680Z,0.30
2019-04-04T01:11:50.962Z,0.20
2019-04-04T01:14:18.799Z,0.20
2019-04-04T01:16:48.574Z,0.33
2019-04-04T01:19:18.437Z,0.30
2019-04-04T01:21:48.205Z,0.23
2019-04-04T01:24:24.281Z,0.50
2019-04-04T01:26:58.121Z,0.23
2019-04-04T01:29:33.885Z,0.20
2019-04-04T01:32:03.324Z,0.30
2019-04-04T01:34:33.078Z,0.20
2019-04-04T01:37:03.843Z,0.40
2019-04-04T01:39:33.578Z,0.40
2019-04-04T01:42:05.067Z,0.30
2019-04-04T01:44:34.778Z,0.40
2019-04-04T01:47:04.607Z,0.40
2019-04-04T01:49:34.416Z,0.40
2019-04-04T01:52:04.186Z,0.37
2019-04-04T01:54:33.924Z,0.40
2019-04-04T01:57:08.117Z,0.47
2019-04-04T01:59:43.940Z,0.43
2019-04-04T02:02:42.377Z,0.30
2019-04-04T02:05:15.020Z,0.40
2019-04-04T02:07:45.578Z,0.40
2019-04-04T02:10:15.394Z,0.40
2019-04-04T02:12:45.209Z,0.40
2019-04-04T02:15:15.030Z,0.40
2019-04-04T02:17:46.513Z,0.43
2019-04-04T02:20:16.294Z,0.43
2019-04-04T02:22:51.769Z,0.40
2019-04-04T02:25:24.513Z,0.40
2019-04-04T02:27:56.581Z,0.40
2019-04-04T02:30:27.274Z,0.40
2019-04-04T02:33:00.475Z,0.40
2019-04-04T02:35:28.505Z,0.40
2019-04-04T02:37:59.221Z,0.40
2019-04-04T02:40:28.876Z,0.40
2019-04-04T02:42:58.754Z,0.40
2019-04-04T02:45:28.542Z,0.30
2019-04-04T02:47:58.455Z,0.40
2019-04-04T02:50:28.281Z,0.40
2019-04-04T02:52:57.978Z,0.50
2019-04-04T02:55:30.221Z,0.40
2019-04-04T02:57:59.617Z,0.33
2019-04-04T03:00:29.361Z,0.40
2019-04-04T03:02:59.082Z,0.40
2019-04-04T03:05:28.878Z,0.40
2019-04-04T03:08:02.999Z,0.37
2019-04-04T03:10:30.360Z,0.70
2019-04-04T03:13:00.287Z,0.40
2019-04-04T03:15:30.193Z,0.30
2019-04-04T03:18:10.585Z,0.50
2019-04-04T03:20:41.523Z,0.50
2019-04-04T03:23:11.301Z,0.60
2019-04-04T03:25:44.647Z,0.60
2019-04-04T03:28:19.833Z,0.40
2019-04-04T03:31:00.607Z,0.40
2019-04-04T03:33:21.188Z,0.33
2019-04-04T03:35:51.031Z,0.40
2019-04-04T03:38:21.617Z,0.50
2019-04-04T03:40:52.317Z,0.40
2019-04-04T03:43:22.188Z,0.40
2019-04-04T03:45:51.960Z,0.50
2019-04-04T03:48:21.732Z,0.43
2019-04-04T03:50:51.454Z,0.53
2019-04-04T03:53:22.033Z,0.50
2019-04-04T03:55:51.961Z,0.50
2019-04-04T03:58:21.786Z,0.30
2019-04-04T04:00:51.586Z,0.40
2019-04-04T04:03:22.717Z,0.90
2019-04-04T04:05:52.581Z,0.70
2019-04-04T04:08:22.451Z,0.97
2019-04-04T04:10:53.541Z,1.10
2019-04-04T04:13:23.224Z,0.80
2019-04-04T04:15:53.138Z,1.20
2019-04-04T04:18:22.956Z,1.30
2019-04-04T04:20:52.609Z,1.23
2019-04-04T04:23:23.971Z,0.87
2019-04-04T04:25:53.766Z,0.93
2019-04-04T04:28:23.453Z,1.23
2019-04-04T04:30:53.138Z,0.70
2019-04-04T04:33:23.056Z,0.60
2019-04-04T04:35:52.793Z,0.67
2019-04-04T04:38:26.795Z,0.70
2019-04-04T04:40:54.893Z,0.90
2019-04-04T04:43:26.795Z,1.10
2019-04-04T04:45:56.599Z,1.00
2019-04-04T04:48:28.581Z,2.10
2019-04-04T04:50:57.660Z,1.90
2019-04-04T04:53:27.407Z,1.57
2019-04-04T04:55:59.541Z,1.10
2019-04-04T04:58:28.547Z,1.27
2019-04-04T05:00:58.318Z,1.10
2019-04-04T05:03:28.052Z,1.20
2019-04-04T05:05:57.834Z,1.20
2019-04-04T05:08:27.486Z,1.37
2019-04-04T05:10:57.361Z,1.13
2019-04-04T05:13:28.761Z,1.00
2019-04-04T05:15:58.524Z,1.33
2019-04-04T05:18:28.203Z,1.40
2019-04-04T05:21:01.563Z,1.10
2019-04-04T05:23:29.324Z,1.10
2019-04-04T05:26:02.493Z,0.83
2019-04-04T05:28:30.375Z,1.13
2019-04-04T05:31:00.052Z,1.00
2019-04-04T05:33:31.533Z,1.00
2019-04-04T05:36:01.193Z,0.90
2019-04-04T05:38:34.592Z,0.90
2019-04-04T05:41:04.388Z,0.83
2019-04-04T05:43:35.307Z,0.70
2019-04-04T05:46:05.561Z,0.90
2019-04-04T05:48:35.337Z,1.20
2019-04-04T05:51:05.033Z,1.10
2019-04-04T05:53:37.420Z,1.17
2019-04-04T05:56:07.204Z,0.90
2019-04-04T05:58:37.096Z,1.00
2019-04-04T06:01:08.289Z,1.07
2019-04-04T06:03:38.078Z,0.70
2019-04-04T06:06:10.379Z,1.00
2019-04-04T06:08:43.058Z,0.80
2019-04-04T06:11:11.716Z,0.70
2019-04-04T06:13:41.402Z,0.80
2019-04-04T06:16:11.260Z,0.60
2019-04-04T06:18:42.952Z,0.53
2019-04-04T06:21:12.409Z,0.80
2019-04-04T06:23:42.143Z,0.60
2019-04-04T06:26:11.948Z,0.90
2019-04-04T06:28:44.241Z,0.80
2019-04-04T06:31:13.115Z,0.80
2019-04-04T06:33:42.816Z,0.97
2019-04-04T06:36:12.580Z,1.20
2019-04-04T06:38:42.448Z,1.10
2019-04-04T06:41:12.105Z,1.10
2019-04-04T06:43:42.131Z,1.03
2019-04-04T06:46:11.949Z,1.00
2019-04-04T06:48:41.727Z,0.90
2019-04-04T06:51:11.999Z,1.07
2019-04-04T06:53:42.861Z,0.90
2019-04-04T06:56:12.678Z,1.30
2019-04-04T06:58:42.593Z,0.83
2019-04-04T07:01:12.309Z,1.10
2019-04-04T07:03:42.019Z,1.00
2019-04-04T07:06:11.795Z,1.00
2019-04-04T07:08:41.732Z,0.83
2019-04-04T07:11:20.900Z,0.80
2019-04-04T07:13:43.350Z,0.80
2019-04-04T07:16:13.106Z,0.80
2019-04-04T07:18:43.115Z,0.90
2019-04-04T07:21:13.388Z,0.80
2019-04-04T07:23:43.199Z,1.23
2019-04-04T07:26:14.833Z,0.87
2019-04-04T07:28:44.374Z,0.87
2019-04-04T07:31:16.002Z,0.97
2019-04-04T07:33:45.645Z,1.00
2019-04-04T07:36:15.502Z,1.20
2019-04-04T07:38:45.432Z,1.20
2019-04-04T07:41:15.193Z,1.30
2019-04-04T07:43:46.196Z,1.10
2019-04-04T07:46:17.247Z,1.13
2019-04-04T07:48:46.998Z,0.90
2019-04-04T07:51:16.712Z,1.10
2019-04-04T07:53:46.413Z,0.83
2019-04-04T07:56:17.279Z,0.80
2019-04-04T07:58:47.077Z,1.00
2019-04-04T08:01:16.913Z,0.93
2019-04-04T08:03:46.647Z,1.00
2019-04-04T08:06:16.453Z,1.10
2019-04-04T08:08:46.245Z,1.20
2019-04-04T08:11:15.968Z,1.10
2019-04-04T08:13:45.766Z,0.83
2019-04-04T08:16:15.946Z,1.10
2019-04-04T08:18:45.709Z,0.97
2019-04-04T08:21:15.386Z,1.10
2019-04-04T08:23:45.109Z,0.90
2019-04-04T08:26:15.061Z,1.10
2019-04-04T08:28:44.788Z,0.90
2019-04-04T08:31:14.544Z,1.00
2019-04-04T08:33:44.239Z,0.93
2019-04-04T08:36:14.070Z,1.10
2019-04-04T08:38:43.885Z,0.93
2019-04-04T08:41:13.700Z,0.90
2019-04-04T08:43:43.541Z,1.20
2019-04-04T08:46:13.440Z,1.40
2019-04-04T08:48:43.232Z,1.03
2019-04-04T08:51:12.904Z,1.10
2019-04-04T08:53:42.682Z,1.37
2019-04-04T08:56:12.443Z,1.20
2019-04-04T08:58:42.208Z,1.27
2019-04-04T09:01:11.920Z,1.20
2019-04-04T09:03:41.685Z,1.13
2019-04-04T09:06:11.627Z,1.03
2019-04-04T09:08:41.431Z,1.10
2019-04-04T09:11:11.151Z,1.30
2019-04-04T09:13:41.046Z,1.00
2019-04-04T09:16:10.921Z,1.10
2019-04-04T09:18:40.692Z,1.20
2019-04-04T09:21:10.405Z,1.00
2019-04-04T09:23:40.119Z,1.03
2019-04-04T09:26:09.896Z,0.77
2019-04-04T09:28:39.661Z,0.97
2019-04-04T09:31:09.403Z,1.10
2019-04-04T09:33:39.231Z,1.10
2019-04-04T09:36:09.142Z,0.93
2019-04-04T09:38:38.987Z,0.90
2019-04-04T09:41:08.943Z,0.90
2019-04-04T09:43:39.614Z,1.07
2019-04-04T09:46:09.427Z,1.20
2019-04-04T09:48:39.149Z,0.87
2019-04-04T09:51:08.859Z,0.80
2019-04-04T09:53:52.425Z,0.73
2019-04-04T09:56:10.322Z,0.90
2019-04-04T09:58:40.085Z,0.70
2019-04-04T10:01:09.894Z,0.70
2019-04-04T10:03:39.674Z,0.80
2019-04-04T10:06:09.539Z,0.90
2019-04-04T10:08:39.309Z,0.80
2019-04-04T10:11:09.530Z,0.87
2019-04-04T10:13:39.362Z,0.70
2019-04-04T10:16:09.198Z,0.90
2019-04-04T10:18:39.041Z,0.60
2019-04-04T10:21:12.314Z,0.73
2019-04-04T10:23:40.121Z,0.73
2019-04-04T10:26:10.053Z,0.77
2019-04-04T10:28:40.073Z,0.83
2019-04-04T10:31:10.192Z,0.80
2019-04-04T10:33:42.220Z,0.77
2019-04-04T10:36:11.912Z,0.67
2019-04-04T10:38:41.620Z,0.80
2019-04-04T10:41:11.371Z,0.70
2019-04-04T10:43:41.297Z,0.80
2019-04-04T10:46:11.540Z,0.70
2019-04-04T10:48:41.311Z,0.53
2019-04-04T10:51:11.415Z,0.70
2019-04-04T10:53:41.092Z,0.67
2019-04-04T10:56:10.895Z,0.60
2019-04-04T10:58:41.093Z,0.50
2019-04-04T11:01:10.971Z,0.67
2019-04-04T11:03:40.904Z,0.50
2019-04-04T11:06:11.207Z,0.70
2019-04-04T11:08:40.982Z,0.60
2019-04-04T11:11:10.886Z,0.70
2019-04-04T11:13:40.649Z,0.40
2019-04-04T11:16:11.608Z,0.50
2019-04-04T11:18:42.573Z,0.70
2019-04-04T11:21:12.240Z,0.63
2019-04-04T11:23:41.902Z,0.70
2019-04-04T11:26:11.772Z,0.50
2019-04-04T11:28:41.456Z,0.53
2019-04-04T11:31:11.230Z,0.50
2019-04-04T11:33:40.988Z,0.63
2019-04-04T11:36:10.918Z,0.73
2019-04-04T11:38:40.580Z,0.63
2019-04-04T11:41:10.742Z,0.60
2019-04-04T11:43:40.747Z,0.67
2019-04-04T11:46:10.524Z,0.70
2019-04-04T11:48:40.243Z,0.70
2019-04-04T11:51:09.948Z,0.60
2019-04-04T11:53:39.612Z,0.47
2019-04-04T11:56:09.436Z,0.60
2019-04-04T11:58:39.117Z,0.60
2019-04-04T12:01:10.432Z,0.73
2019-04-04T12:03:40.125Z,0.60
2019-04-04T12:06:09.840Z,0.70
2019-04-04T12:08:39.543Z,0.63
2019-04-04T12:11:09.255Z,0.60
2019-04-04T12:13:38.977Z,0.57
2019-04-04T12:16:08.830Z,0.40
2019-04-04T12:18:38.638Z,0.40
2019-04-04T12:21:09.301Z,0.60
2019-04-04T12:23:39.000Z,0.50
2019-04-04T12:26:09.817Z,0.50
2019-04-04T12:28:39.521Z,0.50
2019-04-04T12:31:09.188Z,0.50
2019-04-04T12:33:38.854Z,0.30
2019-04-04T12:36:08.646Z,0.50
2019-04-04T12:38:38.455Z,0.33
2019-04-04T12:41:08.232Z,0.40
2019-04-04T12:43:38.012Z,0.57
2019-04-04T12:46:07.937Z,0.63
2019-04-04T12:48:37.658Z,0.40
2019-04-04T12:51:07.380Z,0.50
2019-04-04T12:53:37.092Z,0.40
2019-04-04T12:56:06.801Z,0.40
2019-04-04T12:58:36.556Z,0.40
2019-04-04T13:01:06.260Z,0.23
2019-04-04T13:03:35.943Z,0.30
2019-04-04T13:06:05.815Z,0.40
2019-04-04T13:08:35.605Z,0.43
2019-04-04T13:11:05.301Z,0.40
2019-04-04T13:13:34.984Z,0.30
2019-04-04T13:16:04.938Z,0.33
2019-04-04T13:18:34.814Z,0.40
2019-04-04T13:21:04.494Z,0.40
2019-04-04T13:23:34.228Z,0.40
2019-04-04T13:26:04.044Z,0.33
2019-04-04T13:28:33.752Z,0.40
2019-04-04T13:31:03.439Z,0.50
2019-04-04T13:33:33.223Z,0.30
2019-04-04T13:36:03.036Z,0.23
2019-04-04T13:38:32.755Z,0.40
2019-04-04T13:41:02.617Z,0.50
2019-04-04T13:43:32.930Z,0.43
2019-04-04T13:46:02.680Z,0.50
2019-04-04T13:48:32.473Z,0.30
2019-04-04T13:51:02.211Z,0.40
2019-04-04T13:53:31.916Z,0.30
2019-04-04T13:56:01.684Z,0.37
2019-04-04T13:58:31.561Z,0.50
2019-04-04T14:01:01.617Z,0.40
2019-04-04T14:03:31.325Z,0.40
2019-04-04T14:06:01.982Z,0.37
2019-04-04T14:08:31.777Z,0.40
2019-04-04T14:11:01.481Z,0.40
2019-04-04T14:13:31.170Z,0.30
2019-04-04T14:16:00.975Z,0.40
2019-04-04T14:18:39.458Z,0.47
2019-04-04T14:21:04.298Z,0.40
2019-04-04T14:23:33.840Z,0.47
2019-04-04T14:26:03.771Z,0.37
2019-04-04T14:28:33.520Z,0.40
2019-04-04T14:31:03.220Z,0.30
2019-04-04T14:33:33.148Z,0.30
2019-04-04T14:36:02.887Z,0.37
2019-04-04T14:38:32.600Z,0.40
2019-04-04T14:41:11.194Z,0.40
2019-04-04T14:43:34.284Z,0.30
2019-04-04T14:46:04.076Z,0.50
2019-04-04T14:48:33.822Z,0.50
2019-04-04T14:51:03.587Z,0.30
2019-04-04T14:53:33.260Z,0.30
2019-04-04T14:56:03.028Z,0.40
2019-04-04T14:58:32.801Z,0.47
2019-04-04T15:01:02.576Z,0.37
2019-04-04T15:03:32.252Z,0.40
2019-04-04T15:06:02.136Z,0.33
2019-04-04T15:08:31.814Z,0.40
2019-04-04T15:11:01.498Z,0.40
2019-04-04T15:13:31.203Z,0.30
2019-04-04T15:16:17.612Z,0.30
2019-04-04T15:18:49.565Z,0.30
2019-04-04T15:21:19.221Z,0.30
2019-04-04T15:23:49.013Z,0.40
2019-04-04T15:26:19.383Z,1.07
2019-04-04T15:28:49.254Z,0.60
2019-04-04T15:31:19.181Z,0.47
2019-04-04T15:33:50.463Z,0.40
2019-04-04T15:36:20.507Z,0.77
2019-04-04T15:38:50.251Z,1.00
2019-04-04T15:41:20.019Z,0.90
2019-04-04T15:43:49.965Z,1.10
2019-04-04T15:46:19.896Z,0.77
2019-04-04T15:48:49.592Z,1.00
2019-04-04T15:51:19.318Z,1.00
2019-04-04T15:53:49.100Z,1.40
2019-04-04T15:56:18.913Z,1.07
2019-04-04T15:58:48.583Z,1.20
2019-04-04T16:01:18.349Z,1.43
2019-04-04T16:03:48.060Z,0.90
2019-04-04T16:06:17.876Z,1.00
2019-04-04T16:08:47.602Z,1.20
2019-04-04T16:11:17.424Z,1.00
2019-04-04T16:13:47.173Z,1.00
2019-04-04T16:16:16.961Z,0.77
2019-04-04T16:18:46.740Z,1.47
2019-04-04T16:21:16.552Z,1.10
2019-04-04T16:23:46.366Z,1.10
2019-04-04T16:26:16.306Z,1.60
2019-04-04T16:28:46.094Z,1.40
2019-04-04T16:31:15.939Z,1.43
2019-04-04T16:33:45.601Z,1.17
2019-04-04T16:36:15.859Z,1.20
2019-04-04T16:38:45.661Z,1.00
2019-04-04T16:41:15.961Z,1.20
2019-04-04T16:43:46.086Z,0.90
2019-04-04T16:46:15.882Z,0.93
2019-04-04T16:48:46.091Z,1.00
2019-04-04T16:51:15.758Z,7.10
2019-04-04T16:53:45.445Z,4.63
2019-04-04T16:56:15.260Z,4.23
2019-04-04T16:58:45.096Z,3.60
2019-04-04T17:01:14.850Z,4.10
2019-04-04T17:03:44.621Z,4.00
2019-04-04T17:06:14.441Z,3.20
2019-04-04T17:08:44.223Z,3.17
2019-04-04T17:11:13.931Z,2.80
2019-04-04T17:13:43.743Z,3.03
2019-04-04T17:16:13.524Z,2.70
2019-04-04T17:18:43.504Z,2.80
2019-04-04T17:21:13.720Z,2.50
2019-04-04T17:23:43.451Z,2.40
2019-04-04T17:26:13.208Z,2.47
2019-04-04T17:28:43.401Z,2.30
2019-04-04T17:31:13.501Z,2.10
2019-04-04T17:33:43.381Z,2.20
2019-04-04T17:36:13.248Z,2.03
2019-04-04T17:38:42.990Z,2.30
2019-04-04T17:41:12.775Z,1.90
2019-04-04T17:43:42.832Z,1.70
2019-04-04T17:46:12.945Z,1.83
2019-04-04T17:48:42.809Z,1.50
2019-04-04T17:51:12.668Z,1.60
2019-04-04T17:53:43.438Z,1.50
2019-04-04T17:56:13.355Z,1.60
2019-04-04T17:58:43.024Z,1.63
2019-04-04T18:01:13.657Z,1.20
2019-04-04T18:03:43.391Z,1.40
2019-04-04T18:06:13.184Z,1.30
2019-04-04T18:08:42.945Z,1.37
2019-04-04T18:11:12.703Z,1.27
2019-04-04T18:13:42.495Z,1.40
2019-04-04T18:16:12.313Z,1.50
2019-04-04T18:18:42.047Z,1.30
2019-04-04T18:21:11.705Z,1.10
2019-04-04T18:23:41.461Z,1.10
2019-04-04T18:26:11.290Z,1.40
2019-04-04T18:28:41.084Z,1.00
2019-04-04T18:31:10.792Z,1.37
2019-04-04T18:33:40.553Z,1.00
2019-04-04T18:36:10.637Z,0.90
2019-04-04T18:38:40.346Z,1.00
2019-04-04T18:41:10.029Z,1.00
2019-04-04T18:43:39.699Z,1.10
2019-04-04T18:46:09.566Z,0.90
2019-04-04T18:48:40.533Z,0.90
2019-04-04T18:51:10.414Z,1.47
2019-04-04T18:53:40.371Z,1.40
2019-04-04T18:56:10.096Z,1.63
2019-04-04T18:58:39.844Z,1.37
2019-04-04T19:01:09.621Z,1.60
2019-04-04T19:03:39.340Z,1.53
2019-04-04T19:06:10.059Z,1.50
2019-04-04T19:08:39.735Z,1.17
2019-04-04T19:11:09.451Z,1.10
2019-04-04T19:13:44.390Z,1.20
2019-04-04T19:16:10.547Z,1.50
2019-04-04T19:18:40.336Z,1.20
2019-04-04T19:21:10.041Z,0.80
2019-04-04T19:23:49.252Z,0.90
2019-04-04T19:26:11.223Z,1.43
2019-04-04T19:28:40.902Z,1.03
2019-04-04T19:31:10.652Z,1.13
2019-04-04T19:33:40.354Z,1.10
2019-04-04T19:36:10.112Z,0.93
2019-04-04T19:38:40.464Z,1.20
2019-04-04T19:41:10.336Z,0.87
2019-04-04T19:43:40.065Z,0.90
2019-04-04T19:46:10.234Z,0.60
2019-04-04T19:48:39.948Z,0.70
2019-04-04T19:51:09.809Z,0.80
2019-04-04T19:53:39.600Z,0.80
2019-04-04T19:56:09.379Z,0.80
2019-04-04T19:58:39.128Z,0.60
2019-04-04T20:01:10.660Z,0.70
2019-04-04T20:03:39.784Z,0.63
2019-04-04T20:06:09.531Z,0.77
2019-04-04T20:08:39.298Z,0.70
2019-04-04T20:11:08.970Z,0.60
2019-04-04T20:13:38.680Z,0.60
2019-04-04T20:16:08.392Z,0.70
2019-04-04T20:18:38.153Z,0.80
2019-04-04T20:21:07.962Z,0.63
2019-04-04T20:23:37.772Z,0.80
2019-04-04T20:26:07.616Z,0.60
2019-04-04T20:28:40.041Z,0.50
2019-04-04T20:31:08.848Z,0.70
2019-04-04T20:33:38.651Z,0.70
2019-04-04T20:36:09.019Z,0.87
2019-04-04T20:38:38.866Z,0.60
2019-04-04T20:41:08.614Z,0.80
2019-04-04T20:43:43.481Z,0.53
2019-04-04T20:46:09.980Z,0.60
2019-04-04T20:48:39.776Z,0.70
2019-04-04T20:51:09.452Z,0.57
2019-04-04T20:53:39.314Z,0.60
2019-04-04T20:56:09.060Z,0.60
2019-04-04T20:58:38.736Z,0.33
2019-04-04T21:01:08.544Z,0.60
2019-04-04T21:03:38.342Z,0.57
2019-04-04T21:06:08.158Z,0.50
2019-04-04T21:08:37.968Z,0.50
2019-04-04T21:11:07.641Z,0.60
2019-04-04T21:13:37.399Z,0.53
2019-04-04T21:16:07.200Z,0.60
2019-04-04T21:18:36.930Z,0.63
2019-04-04T21:21:06.724Z,0.50
2019-04-04T21:23:36.396Z,0.60
2019-04-04T21:26:06.148Z,1.03
2019-04-04T21:28:35.848Z,0.50
2019-04-04T21:31:05.530Z,0.50
2019-04-04T21:33:35.396Z,0.40
2019-04-04T21:36:05.204Z,0.60
2019-04-04T21:38:35.100Z,0.60
2019-04-04T21:41:04.824Z,0.60
2019-04-04T21:43:34.492Z,0.50
2019-04-04T21:46:04.279Z,0.70
2019-04-04T21:48:34.163Z,0.70
2019-04-04T21:51:03.889Z,0.50
2019-04-04T21:53:33.573Z,0.50
2019-04-04T21:56:03.789Z,0.80
2019-04-04T21:58:33.613Z,0.70
2019-04-04T22:01:03.310Z,0.40
2019-04-04T22:03:33.031Z,0.80
2019-04-04T22:06:02.837Z,0.60
2019-04-04T22:08:32.508Z,0.70
2019-04-04T22:11:02.375Z,0.70
2019-04-04T22:13:33.337Z,0.60
2019-04-04T22:16:03.112Z,0.70
2019-04-04T22:18:32.815Z,0.80
2019-04-04T22:21:02.641Z,0.80
2019-04-04T22:23:32.340Z,0.80
2019-04-04T22:26:02.253Z,0.80
2019-04-04T22:28:31.962Z,0.80
2019-04-04T22:31:01.689Z,0.90
2019-04-04T22:33:31.381Z,0.90
2019-04-04T22:36:01.199Z,1.00
2019-04-04T22:38:31.124Z,1.07
2019-04-04T22:41:00.924Z,1.10
2019-04-04T22:43:30.647Z,1.10
2019-04-04T22:46:00.796Z,1.20
2019-04-04T22:48:30.682Z,1.30
2019-04-04T22:51:00.525Z,1.00
2019-04-04T22:53:30.413Z,1.33
2019-04-04T22:56:04.576Z,1.30
2019-04-04T22:58:34.332Z,1.37
2019-04-04T23:01:04.029Z,1.00
2019-04-04T23:03:34.214Z,1.30
2019-04-04T23:06:03.964Z,1.43
2019-04-04T23:08:33.772Z,1.10
2019-04-04T23:11:03.587Z,1.33
2019-04-04T23:13:33.411Z,1.60
2019-04-04T23:16:03.325Z,1.30
2019-04-04T23:18:33.024Z,1.20
2019-04-04T23:21:02.697Z,1.23
2019-04-04T23:23:32.490Z,1.40
2019-04-04T23:26:02.527Z,1.70
2019-04-04T23:28:32.275Z,1.40
2019-04-04T23:31:01.987Z,1.30
2019-04-04T23:33:31.692Z,1.20
2019-04-04T23:36:01.504Z,1.20
2019-04-04T23:38:31.184Z,1.37
2019-04-04T23:41:00.941Z,1.30
2019-04-04T23:43:30.740Z,1.20
2019-04-04T23:46:00.554Z,1.27
2019-04-04T23:48:31.284Z,1.20
2019-04-04T23:51:01.213Z,1.20
2019-04-04T23:53:31.125Z,1.20
2019-04-04T23:56:01.040Z,1.07
2019-04-04T23:58:30.805Z,1.10
